sensor_id;sensor_type;location;lat;lon;timestamp;pressure;altitude;pressure_sealevel;temperature;humidity
68988;BME280;56038;46.080;11.116;2024-01-27T00:03:25;100393.78;;;3.48;100.00
68988;BME280;56038;46.080;11.116;2024-01-27T00:08:28;100396.34;;;3.48;100.00
68988;BME280;56038;46.080;11.116;2024-01-27T00:13:30;100400.66;;;3.49;100.00
68988;BME280;56038;46.080;11.116;2024-01-27T00:18:32;100398.91;;;3.47;100.00
68988;BME280;56038;46.080;11.116;2024-01-27T00:23:35;100415.25;;;3.43;100.00
68988;BME280;56038;46.080;11.116;2024-01-27T00:28:37;100406.63;;;3.42;100.00
68988;BME280;56038;46.080;11.116;2024-01-27T00:33:38;100413.50;;;3.40;100.00
68988;BME280;56038;46.080;11.116;2024-01-27T00:38:41;100416.09;;;3.40;100.00
68988;BME280;56038;46.080;11.116;2024-01-27T00:43:43;100414.31;;;3.30;100.00
68988;BME280;56038;46.080;11.116;2024-01-27T00:48:45;100422.09;;;3.33;100.00
68988;BME280;56038;46.080;11.116;2024-01-27T00:53:48;100415.13;;;3.24;100.00
68988;BME280;56038;46.080;11.116;2024-01-27T00:58:50;100426.31;;;3.19;100.00
68988;BME280;56038;46.080;11.116;2024-01-27T01:03:52;100437.53;;;3.27;100.00
68988;BME280;56038;46.080;11.116;2024-01-27T01:08:55;100430.59;;;3.17;100.00
68988;BME280;56038;46.080;11.116;2024-01-27T01:13:56;100450.28;;;3.06;100.00
68988;BME280;56038;46.080;11.116;2024-01-27T01:18:58;100453.72;;;3.05;100.00
68988;BME280;56038;46.080;11.116;2024-01-27T01:24:01;100458.03;;;3.04;100.00
68988;BME280;56038;46.080;11.116;2024-01-27T01:29:03;100462.25;;;2.97;100.00
68988;BME280;56038;46.080;11.116;2024-01-27T01:34:05;100469.97;;;2.94;100.00
68988;BME280;56038;46.080;11.116;2024-01-27T01:39:10;100472.63;;;3.02;100.00
68988;BME280;56038;46.080;11.116;2024-01-27T01:44:14;100478.69;;;3.07;100.00
68988;BME280;56038;46.080;11.116;2024-01-27T01:49:16;100489.88;;;3.05;100.00
68988;BME280;56038;46.080;11.116;2024-01-27T01:54:19;100494.09;;;2.99;100.00
68988;BME280;56038;46.080;11.116;2024-01-27T01:59:22;100488.06;;;2.97;100.00
68988;BME280;56038;46.080;11.116;2024-01-27T02:04:24;100488.84;;;2.87;100.00
68988;BME280;56038;46.080;11.116;2024-01-27T02:09:27;100494.88;;;2.89;100.00
68988;BME280;56038;46.080;11.116;2024-01-27T02:14:29;100496.56;;;2.84;100.00
68988;BME280;56038;46.080;11.116;2024-01-27T02:19:31;100501.69;;;2.81;100.00
68988;BME280;56038;46.080;11.116;2024-01-27T02:24:35;100506.81;;;2.77;100.00
68988;BME280;56038;46.080;11.116;2024-01-27T02:29:36;100505.00;;;2.68;100.00
68988;BME280;56038;46.080;11.116;2024-01-27T02:34:39;100508.41;;;2.67;100.00
68988;BME280;56038;46.080;11.116;2024-01-27T02:39:42;100494.59;;;2.57;100.00
68988;BME280;56038;46.080;11.116;2024-01-27T02:44:44;100501.34;;;2.46;100.00
68988;BME280;56038;46.080;11.116;2024-01-27T02:49:45;100495.31;;;2.44;100.00
68988;BME280;56038;46.080;11.116;2024-01-27T02:54:48;100496.91;;;2.36;100.00
68988;BME280;56038;46.080;11.116;2024-01-27T02:59:50;100490.81;;;2.26;100.00
68988;BME280;56038;46.080;11.116;2024-01-27T03:04:51;100498.50;;;2.22;100.00
68988;BME280;56038;46.080;11.116;2024-01-27T03:09:54;100504.47;;;2.21;100.00
68988;BME280;56038;46.080;11.116;2024-01-27T03:14:56;100505.31;;;2.20;100.00
68988;BME280;56038;46.080;11.116;2024-01-27T03:19:58;100508.81;;;2.23;100.00
68988;BME280;56038;46.080;11.116;2024-01-27T03:25:01;100507.91;;;2.20;100.00
68988;BME280;56038;46.080;11.116;2024-01-27T03:30:03;100521.63;;;2.19;100.00
68988;BME280;56038;46.080;11.116;2024-01-27T03:35:06;100519.13;;;2.22;100.00
68988;BME280;56038;46.080;11.116;2024-01-27T03:40:11;100519.19;;;2.29;100.00
68988;BME280;56038;46.080;11.116;2024-01-27T03:45:13;100534.66;;;2.29;100.00
68988;BME280;56038;46.080;11.116;2024-01-27T03:50:14;100533.78;;;2.26;100.00
68988;BME280;56038;46.080;11.116;2024-01-27T03:55:17;100534.66;;;2.28;100.00
68988;BME280;56038;46.080;11.116;2024-01-27T04:00:19;100535.50;;;2.27;100.00
68988;BME280;56038;46.080;11.116;2024-01-27T04:05:21;100546.66;;;2.24;100.00
68988;BME280;56038;46.080;11.116;2024-01-27T04:10:24;100551.81;;;2.26;100.00
68988;BME280;56038;46.080;11.116;2024-01-27T04:15:26;100549.22;;;2.24;100.00
68988;BME280;56038;46.080;11.116;2024-01-27T04:20:27;100562.81;;;2.14;100.00
68988;BME280;56038;46.080;11.116;2024-01-27T04:25:30;100566.19;;;2.07;100.00
68988;BME280;56038;46.080;11.116;2024-01-27T04:30:32;100561.91;;;2.07;100.00
68988;BME280;56038;46.080;11.116;2024-01-27T04:35:33;100547.31;;;2.09;100.00
68988;BME280;56038;46.080;11.116;2024-01-27T04:40:37;100563.59;;;2.05;100.00
68988;BME280;56038;46.080;11.116;2024-01-27T04:45:38;100563.47;;;1.99;100.00
68988;BME280;56038;46.080;11.116;2024-01-27T04:50:40;100550.56;;;1.95;100.00
68988;BME280;56038;46.080;11.116;2024-01-27T04:55:43;100558.28;;;1.95;100.00
68988;BME280;56038;46.080;11.116;2024-01-27T05:00:45;100560.91;;;1.99;100.00
68988;BME280;56038;46.080;11.116;2024-01-27T05:05:46;100562.63;;;2.00;100.00
68988;BME280;56038;46.080;11.116;2024-01-27T05:10:49;100557.44;;;1.96;100.00
68988;BME280;56038;46.080;11.116;2024-01-27T05:15:51;100572.06;;;2.00;100.00
68988;BME280;56038;46.080;11.116;2024-01-27T05:20:52;100558.25;;;1.93;100.00
68988;BME280;56038;46.080;11.116;2024-01-27T05:25:55;100570.28;;;1.93;100.00
68988;BME280;56038;46.080;11.116;2024-01-27T05:30:57;100578.91;;;1.95;100.00
68988;BME280;56038;46.080;11.116;2024-01-27T05:35:59;100595.09;;;1.88;100.00
68988;BME280;56038;46.080;11.116;2024-01-27T05:41:02;100602.78;;;1.85;100.00
68988;BME280;56038;46.080;11.116;2024-01-27T05:46:04;100614.81;;;1.86;100.00
68988;BME280;56038;46.080;11.116;2024-01-27T05:51:06;100620.91;;;1.91;100.00
68988;BME280;56038;46.080;11.116;2024-01-27T05:56:09;100630.28;;;1.86;100.00
68988;BME280;56038;46.080;11.116;2024-01-27T06:01:11;100629.50;;;1.90;100.00
68988;BME280;56038;46.080;11.116;2024-01-27T06:06:13;100644.91;;;1.88;100.00
68988;BME280;56038;46.080;11.116;2024-01-27T06:11:23;100638.13;;;1.92;100.00
68988;BME280;56038;46.080;11.116;2024-01-27T06:16:24;100651.91;;;1.95;100.00
68988;BME280;56038;46.080;11.116;2024-01-27T06:21:26;100653.72;;;2.02;100.00
68988;BME280;56038;46.080;11.116;2024-01-27T06:26:29;100652.06;;;2.06;100.00
68988;BME280;56038;46.080;11.116;2024-01-27T06:31:30;100641.75;;;2.06;100.00
68988;BME280;56038;46.080;11.116;2024-01-27T06:36:32;100643.41;;;2.02;100.00
68988;BME280;56038;46.080;11.116;2024-01-27T06:41:35;100649.41;;;2.01;100.00
68988;BME280;56038;46.080;11.116;2024-01-27T06:46:36;100657.13;;;2.00;100.00
68988;BME280;56038;46.080;11.116;2024-01-27T06:51:38;100670.81;;;1.97;100.00
68988;BME280;56038;46.080;11.116;2024-01-27T06:56:41;100676.00;;;1.99;100.00
68988;BME280;56038;46.080;11.116;2024-01-27T07:01:45;100675.06;;;1.94;100.00
68988;BME280;56038;46.080;11.116;2024-01-27T07:06:48;100671.69;;;1.98;100.00
68988;BME280;56038;46.080;11.116;2024-01-27T07:11:51;100682.91;;;2.03;100.00
68988;BME280;56038;46.080;11.116;2024-01-27T07:16:53;100689.03;;;2.08;100.00
68988;BME280;56038;46.080;11.116;2024-01-27T07:21:54;100687.97;;;1.95;100.00
68988;BME280;56038;46.080;11.116;2024-01-27T07:26:59;100692.38;;;2.04;100.00
68988;BME280;56038;46.080;11.116;2024-01-27T07:32:01;100696.56;;;1.96;100.00
68988;BME280;56038;46.080;11.116;2024-01-27T07:37:03;100709.50;;;1.99;100.00
68988;BME280;56038;46.080;11.116;2024-01-27T07:42:06;100714.88;;;2.13;100.00
68988;BME280;56038;46.080;11.116;2024-01-27T07:47:08;100720.22;;;2.25;100.00
68988;BME280;56038;46.080;11.116;2024-01-27T07:52:10;100728.06;;;2.32;100.00
68988;BME280;56038;46.080;11.116;2024-01-27T07:57:13;100731.47;;;2.31;100.00
68988;BME280;56038;46.080;11.116;2024-01-27T08:02:14;100730.66;;;2.34;100.00
68988;BME280;56038;46.080;11.116;2024-01-27T08:07:16;100735.97;;;2.43;100.00
68988;BME280;56038;46.080;11.116;2024-01-27T08:12:19;100733.81;;;2.75;100.00
68988;BME280;56038;46.080;11.116;2024-01-27T08:17:21;100738.47;;;3.02;100.00
68988;BME280;56038;46.080;11.116;2024-01-27T08:22:22;100755.09;;;3.24;100.00
68988;BME280;56038;46.080;11.116;2024-01-27T08:27:25;100747.59;;;3.47;100.00
68988;BME280;56038;46.080;11.116;2024-01-27T08:32:27;100736.50;;;3.57;100.00
68988;BME280;56038;46.080;11.116;2024-01-27T08:37:28;100742.72;;;3.76;100.00
68988;BME280;56038;46.080;11.116;2024-01-27T08:42:34;100740.38;;;4.03;100.00
68988;BME280;56038;46.080;11.116;2024-01-27T08:47:36;100744.25;;;4.60;100.00
68988;BME280;56038;46.080;11.116;2024-01-27T08:52:38;100739.44;;;5.38;100.00
68988;BME280;56038;46.080;11.116;2024-01-27T08:57:40;100736.09;;;6.02;100.00
68988;BME280;56038;46.080;11.116;2024-01-27T09:02:42;100744.59;;;6.98;100.00
68988;BME280;56038;46.080;11.116;2024-01-27T09:07:44;100738.94;;;7.84;100.00
68988;BME280;56038;46.080;11.116;2024-01-27T09:12:48;100734.44;;;8.04;100.00
68988;BME280;56038;46.080;11.116;2024-01-27T09:17:49;100736.63;;;8.56;100.00
68988;BME280;56038;46.080;11.116;2024-01-27T09:22:51;100730.00;;;9.06;100.00
68988;BME280;56038;46.080;11.116;2024-01-27T09:27:54;100746.22;;;9.27;100.00
68988;BME280;56038;46.080;11.116;2024-01-27T09:32:57;100743.91;;;9.69;100.00
68988;BME280;56038;46.080;11.116;2024-01-27T09:37:58;100738.19;;;10.54;100.00
68988;BME280;56038;46.080;11.116;2024-01-27T09:43:01;100730.59;;;10.43;99.52
68988;BME280;56038;46.080;11.116;2024-01-27T09:48:05;100734.31;;;10.76;97.53
68988;BME280;56038;46.080;11.116;2024-01-27T09:53:09;100727.56;;;11.09;93.65
68988;BME280;56038;46.080;11.116;2024-01-27T09:58:12;100728.88;;;12.41;83.10
68988;BME280;56038;46.080;11.116;2024-01-27T10:03:16;100714.78;;;12.78;79.20
68988;BME280;56038;46.080;11.116;2024-01-27T10:08:20;100712.56;;;13.54;75.35
68988;BME280;56038;46.080;11.116;2024-01-27T10:13:24;100695.44;;;12.82;72.30
68988;BME280;56038;46.080;11.116;2024-01-27T10:18:27;100690.13;;;13.14;75.42
68988;BME280;56038;46.080;11.116;2024-01-27T10:23:29;100689.19;;;13.74;70.25
68988;BME280;56038;46.080;11.116;2024-01-27T10:28:32;100676.22;;;13.96;69.60
68988;BME280;56038;46.080;11.116;2024-01-27T10:33:34;100670.81;;;15.01;65.85
68988;BME280;56038;46.080;11.116;2024-01-27T10:38:35;100677.25;;;15.82;61.28
68988;BME280;56038;46.080;11.116;2024-01-27T10:43:39;100670.66;;;16.35;58.08
68988;BME280;56038;46.080;11.116;2024-01-27T10:48:42;100660.31;;;15.88;57.02
68988;BME280;56038;46.080;11.116;2024-01-27T10:53:49;100662.19;;;15.86;55.28
68988;BME280;56038;46.080;11.116;2024-01-27T10:58:55;100657.47;;;16.35;55.10
68988;BME280;56038;46.080;11.116;2024-01-27T11:03:58;100647.69;;;16.96;52.48
68988;BME280;56038;46.080;11.116;2024-01-27T11:09:01;100651.19;;;16.97;47.68
68988;BME280;56038;46.080;11.116;2024-01-27T11:14:07;100642.03;;;16.85;50.85
68988;BME280;56038;46.080;11.116;2024-01-27T11:19:10;100641.88;;;16.69;49.43
68988;BME280;56038;46.080;11.116;2024-01-27T11:24:13;100643.06;;;16.62;50.09
68988;BME280;56038;46.080;11.116;2024-01-27T11:29:16;100643.56;;;17.83;46.96
68988;BME280;56038;46.080;11.116;2024-01-27T11:34:20;100639.16;;;18.51;45.75
68988;BME280;56038;46.080;11.116;2024-01-27T11:39:26;100631.94;;;18.38;43.46
68988;BME280;56038;46.080;11.116;2024-01-27T11:44:29;100621.00;;;18.61;43.63
68988;BME280;56038;46.080;11.116;2024-01-27T11:49:32;100632.72;;;19.37;41.75
68988;BME280;56038;46.080;11.116;2024-01-27T11:54:34;100627.00;;;19.13;42.02
68988;BME280;56038;46.080;11.116;2024-01-27T11:59:37;100626.59;;;20.57;38.95
68988;BME280;56038;46.080;11.116;2024-01-27T12:04:39;100613.88;;;20.76;39.01
68988;BME280;56038;46.080;11.116;2024-01-27T12:09:41;100617.78;;;20.71;37.70
68988;BME280;56038;46.080;11.116;2024-01-27T12:14:47;100619.28;;;21.44;36.08
68988;BME280;56038;46.080;11.116;2024-01-27T12:19:50;100609.19;;;22.16;35.79
68988;BME280;56038;46.080;11.116;2024-01-27T12:24:53;100597.13;;;21.31;36.15
68988;BME280;56038;46.080;11.116;2024-01-27T12:29:56;100599.94;;;22.47;35.31
68988;BME280;56038;46.080;11.116;2024-01-27T12:34:58;100600.25;;;22.42;34.00
68988;BME280;56038;46.080;11.116;2024-01-27T12:40:17;100591.38;;;20.96;32.80
68988;BME280;56038;46.080;11.116;2024-01-27T12:45:20;100581.28;;;22.22;33.64
68988;BME280;56038;46.080;11.116;2024-01-27T12:50:21;100584.19;;;23.06;32.67
68988;BME280;56038;46.080;11.116;2024-01-27T12:55:23;100573.41;;;22.58;33.77
68988;BME280;56038;46.080;11.116;2024-01-27T13:00:26;100575.47;;;22.79;31.79
68988;BME280;56038;46.080;11.116;2024-01-27T13:05:28;100569.50;;;21.86;34.47
68988;BME280;56038;46.080;11.116;2024-01-27T13:10:30;100568.06;;;20.87;35.30
68988;BME280;56038;46.080;11.116;2024-01-27T13:15:33;100567.13;;;19.72;37.09
68988;BME280;56038;46.080;11.116;2024-01-27T13:20:34;100559.75;;;19.32;37.99
68988;BME280;56038;46.080;11.116;2024-01-27T13:25:36;100551.09;;;19.60;37.83
68988;BME280;56038;46.080;11.116;2024-01-27T13:30:39;100544.47;;;19.51;38.20
68988;BME280;56038;46.080;11.116;2024-01-27T13:35:42;100555.66;;;19.26;38.69
68988;BME280;56038;46.080;11.116;2024-01-27T13:40:46;100552.31;;;18.91;38.59
68988;BME280;56038;46.080;11.116;2024-01-27T13:45:50;100547.06;;;18.58;38.82
68988;BME280;56038;46.080;11.116;2024-01-27T13:50:52;100550.88;;;18.04;38.91
68988;BME280;56038;46.080;11.116;2024-01-27T13:55:54;100540.81;;;17.58;39.39
68988;BME280;56038;46.080;11.116;2024-01-27T14:00:57;100542.97;;;17.33;39.89
68988;BME280;56038;46.080;11.116;2024-01-27T14:05:59;100534.13;;;16.98;40.47
68988;BME280;56038;46.080;11.116;2024-01-27T14:11:00;100547.56;;;16.74;40.24
68988;BME280;56038;46.080;11.116;2024-01-27T14:16:04;100544.31;;;16.49;40.07
68988;BME280;56038;46.080;11.116;2024-01-27T14:21:06;100540.69;;;16.12;39.97
68988;BME280;56038;46.080;11.116;2024-01-27T14:26:07;100544.91;;;15.76;39.95
68988;BME280;56038;46.080;11.116;2024-01-27T14:31:16;100542.44;;;15.29;40.85
68988;BME280;56038;46.080;11.116;2024-01-27T14:36:20;100547.16;;;14.77;41.54
68988;BME280;56038;46.080;11.116;2024-01-27T14:41:23;100540.69;;;14.39;42.23
68988;BME280;56038;46.080;11.116;2024-01-27T14:46:26;100531.00;;;14.16;46.78
68988;BME280;56038;46.080;11.116;2024-01-27T14:51:28;100531.78;;;13.70;45.49
68988;BME280;56038;46.080;11.116;2024-01-27T14:56:30;100540.13;;;13.02;45.81
68988;BME280;56038;46.080;11.116;2024-01-27T15:01:33;100548.25;;;12.65;46.33
68988;BME280;56038;46.080;11.116;2024-01-27T15:06:34;100553.16;;;12.47;46.56
68988;BME280;56038;46.080;11.116;2024-01-27T15:11:36;100556.00;;;12.38;45.90
68988;BME280;56038;46.080;11.116;2024-01-27T15:16:39;100562.03;;;12.42;46.08
68988;BME280;56038;46.080;11.116;2024-01-27T15:21:41;100563.31;;;12.27;46.70
68988;BME280;56038;46.080;11.116;2024-01-27T15:26:42;100563.09;;;12.04;47.22
68988;BME280;56038;46.080;11.116;2024-01-27T15:31:45;100561.22;;;11.75;48.31
68988;BME280;56038;46.080;11.116;2024-01-27T15:36:47;100576.81;;;11.44;49.33
68988;BME280;56038;46.080;11.116;2024-01-27T15:41:49;100578.13;;;11.26;49.45
68988;BME280;56038;46.080;11.116;2024-01-27T15:46:52;100586.09;;;11.21;50.39
68988;BME280;56038;46.080;11.116;2024-01-27T15:51:54;100590.78;;;11.07;50.79
68988;BME280;56038;46.080;11.116;2024-01-27T15:56:56;100588.78;;;10.78;50.07
68988;BME280;56038;46.080;11.116;2024-01-27T16:01:59;100605.31;;;10.37;51.96
68988;BME280;56038;46.080;11.116;2024-01-27T16:07:01;100614.41;;;10.14;51.76
68988;BME280;56038;46.080;11.116;2024-01-27T16:12:03;100623.25;;;10.06;52.61
68988;BME280;56038;46.080;11.116;2024-01-27T16:17:06;100639.03;;;10.00;52.79
68988;BME280;56038;46.080;11.116;2024-01-27T16:22:10;100644.47;;;10.37;50.47
68988;BME280;56038;46.080;11.116;2024-01-27T16:27:12;100657.75;;;10.25;52.33
68988;BME280;56038;46.080;11.116;2024-01-27T16:32:15;100669.81;;;10.33;52.67
68988;BME280;56038;46.080;11.116;2024-01-27T16:37:19;100686.31;;;10.34;52.97
68988;BME280;56038;46.080;11.116;2024-01-27T16:42:21;100696.41;;;10.54;52.40
68988;BME280;56038;46.080;11.116;2024-01-27T16:47:24;100702.63;;;10.48;53.34
68988;BME280;56038;46.080;11.116;2024-01-27T16:52:26;100720.03;;;10.47;54.70
68988;BME280;56038;46.080;11.116;2024-01-27T16:57:28;100724.50;;;10.41;55.36
68988;BME280;56038;46.080;11.116;2024-01-27T17:02:31;100737.63;;;10.38;55.93
68988;BME280;56038;46.080;11.116;2024-01-27T17:07:33;100735.94;;;10.34;55.41
68988;BME280;56038;46.080;11.116;2024-01-27T17:12:35;100741.94;;;10.39;55.50
68988;BME280;56038;46.080;11.116;2024-01-27T17:17:38;100744.75;;;10.30;55.57
68988;BME280;56038;46.080;11.116;2024-01-27T17:22:39;100760.75;;;10.05;57.25
68988;BME280;56038;46.080;11.116;2024-01-27T17:27:41;100775.09;;;9.78;58.64
68988;BME280;56038;46.080;11.116;2024-01-27T17:32:44;100780.56;;;9.58;60.13
68988;BME280;56038;46.080;11.116;2024-01-27T17:37:46;100787.88;;;9.34;62.81
68988;BME280;56038;46.080;11.116;2024-01-27T17:42:48;100789.91;;;9.09;65.54
68988;BME280;56038;46.080;11.116;2024-01-27T17:47:51;100799.72;;;8.82;67.75
68988;BME280;56038;46.080;11.116;2024-01-27T17:52:54;100807.78;;;8.58;70.32
68988;BME280;56038;46.080;11.116;2024-01-27T17:57:56;100824.44;;;8.40;72.36
68988;BME280;56038;46.080;11.116;2024-01-27T18:02:59;100838.50;;;8.11;74.71
68988;BME280;56038;46.080;11.116;2024-01-27T18:08:02;100846.38;;;7.96;76.67
68988;BME280;56038;46.080;11.116;2024-01-27T18:13:04;100862.00;;;7.98;75.82
68988;BME280;56038;46.080;11.116;2024-01-27T18:18:07;100868.13;;;7.86;77.46
68988;BME280;56038;46.080;11.116;2024-01-27T18:23:08;100873.41;;;7.69;79.29
68988;BME280;56038;46.080;11.116;2024-01-27T18:28:10;100876.91;;;7.64;78.79
68988;BME280;56038;46.080;11.116;2024-01-27T18:33:13;100887.31;;;7.64;78.33
68988;BME280;56038;46.080;11.116;2024-01-27T18:38:15;100898.63;;;7.40;80.71
68988;BME280;56038;46.080;11.116;2024-01-27T18:43:16;100898.69;;;7.18;82.66
68988;BME280;56038;46.080;11.116;2024-01-27T18:48:19;100910.84;;;6.98;84.70
68988;BME280;56038;46.080;11.116;2024-01-27T18:53:22;100915.16;;;6.91;84.77
68988;BME280;56038;46.080;11.116;2024-01-27T18:58:24;100915.19;;;6.79;86.51
68988;BME280;56038;46.080;11.116;2024-01-27T19:03:27;100925.56;;;6.70;87.02
68988;BME280;56038;46.080;11.116;2024-01-27T19:08:29;100935.91;;;6.44;91.89
68988;BME280;56038;46.080;11.116;2024-01-27T19:13:30;100934.16;;;6.29;90.67
68988;BME280;56038;46.080;11.116;2024-01-27T19:18:36;100943.69;;;6.32;95.44
68988;BME280;56038;46.080;11.116;2024-01-27T19:23:38;100941.94;;;6.17;100.00
68988;BME280;56038;46.080;11.116;2024-01-27T19:28:40;100946.16;;;5.94;98.91
68988;BME280;56038;46.080;11.116;2024-01-27T19:33:43;100960.75;;;5.80;97.39
68988;BME280;56038;46.080;11.116;2024-01-27T19:38:45;100976.31;;;5.80;97.90
68988;BME280;56038;46.080;11.116;2024-01-27T19:43:47;100975.41;;;5.68;99.58
68988;BME280;56038;46.080;11.116;2024-01-27T19:48:50;100983.13;;;5.64;100.00
68988;BME280;56038;46.080;11.116;2024-01-27T19:53:51;100985.63;;;5.46;100.00
68988;BME280;56038;46.080;11.116;2024-01-27T19:58:53;100996.75;;;5.35;100.00
68988;BME280;56038;46.080;11.116;2024-01-27T20:03:56;101007.09;;;5.28;100.00
68988;BME280;56038;46.080;11.116;2024-01-27T20:08:58;101011.31;;;5.20;100.00
68988;BME280;56038;46.080;11.116;2024-01-27T20:13:59;101012.13;;;5.08;100.00
68988;BME280;56038;46.080;11.116;2024-01-27T20:19:03;101022.38;;;5.00;100.00
68988;BME280;56038;46.080;11.116;2024-01-27T20:24:05;101037.00;;;4.92;100.00
68988;BME280;56038;46.080;11.116;2024-01-27T20:29:07;101046.41;;;4.86;100.00
68988;BME280;56038;46.080;11.116;2024-01-27T20:34:10;101048.97;;;4.82;100.00
68988;BME280;56038;46.080;11.116;2024-01-27T20:39:12;101063.59;;;4.77;100.00
68988;BME280;56038;46.080;11.116;2024-01-27T20:44:13;101066.03;;;4.64;100.00
68988;BME280;56038;46.080;11.116;2024-01-27T20:49:16;101065.91;;;4.53;100.00
68988;BME280;56038;46.080;11.116;2024-01-27T20:54:18;101074.53;;;4.52;100.00
68988;BME280;56038;46.080;11.116;2024-01-27T20:59:20;101077.94;;;4.49;100.00
68988;BME280;56038;46.080;11.116;2024-01-27T21:04:23;101077.88;;;4.42;100.00
68988;BME280;56038;46.080;11.116;2024-01-27T21:09:25;101092.22;;;4.18;100.00
68988;BME280;56038;46.080;11.116;2024-01-27T21:14:27;101105.91;;;4.11;100.00
68988;BME280;56038;46.080;11.116;2024-01-27T21:19:32;101105.06;;;4.12;100.00
68988;BME280;56038;46.080;11.116;2024-01-27T21:24:37;101104.28;;;4.19;100.00
68988;BME280;56038;46.080;11.116;2024-01-27T21:29:38;101112.97;;;4.25;100.00
68988;BME280;56038;46.080;11.116;2024-01-27T21:34:41;101115.47;;;4.17;100.00
68988;BME280;56038;46.080;11.116;2024-01-27T21:39:43;101116.22;;;4.10;100.00
68988;BME280;56038;46.080;11.116;2024-01-27T21:44:45;101118.06;;;4.17;100.00
68988;BME280;56038;46.080;11.116;2024-01-27T21:49:48;101122.31;;;4.13;100.00
68988;BME280;56038;46.080;11.116;2024-01-27T21:54:49;101131.72;;;4.08;100.00
68988;BME280;56038;46.080;11.116;2024-01-27T21:59:51;101128.16;;;4.00;100.00
68988;BME280;56038;46.080;11.116;2024-01-27T22:04:54;101133.19;;;3.91;100.00
68988;BME280;56038;46.080;11.116;2024-01-27T22:09:56;101137.47;;;3.90;100.00
68988;BME280;56038;46.080;11.116;2024-01-27T22:14:58;101138.31;;;3.88;100.00
68988;BME280;56038;46.080;11.116;2024-01-27T22:20:01;101144.28;;;3.84;100.00
68988;BME280;56038;46.080;11.116;2024-01-27T22:25:04;101147.69;;;3.81;100.00
68988;BME280;56038;46.080;11.116;2024-01-27T22:30:08;101161.38;;;3.77;100.00
68988;BME280;56038;46.080;11.116;2024-01-27T22:35:12;101159.56;;;3.70;100.00
68988;BME280;56038;46.080;11.116;2024-01-27T22:40:13;101176.81;;;3.71;99.44
68988;BME280;56038;46.080;11.116;2024-01-27T22:45:15;101178.50;;;3.69;97.71
68988;BME280;56038;46.080;11.116;2024-01-27T22:50:18;101188.28;;;3.87;92.38
68988;BME280;56038;46.080;11.116;2024-01-27T22:55:20;101185.91;;;4.01;89.65
68988;BME280;56038;46.080;11.116;2024-01-27T23:00:22;101195.56;;;4.12;88.56
68988;BME280;56038;46.080;11.116;2024-01-27T23:05:30;101195.41;;;4.03;89.23
68988;BME280;56038;46.080;11.116;2024-01-27T23:10:32;101198.53;;;3.81;92.77
68988;BME280;56038;46.080;11.116;2024-01-27T23:15:34;101199.13;;;3.66;95.32
68988;BME280;56038;46.080;11.116;2024-01-27T23:20:37;101200.75;;;3.61;95.78
68988;BME280;56038;46.080;11.116;2024-01-27T23:25:40;101195.69;;;3.67;92.22
68988;BME280;56038;46.080;11.116;2024-01-27T23:30:46;101203.53;;;3.72;91.07
68988;BME280;56038;46.080;11.116;2024-01-27T23:35:49;101208.41;;;3.56;94.51
68988;BME280;56038;46.080;11.116;2024-01-27T23:40:51;101223.78;;;3.47;95.07
68988;BME280;56038;46.080;11.116;2024-01-27T23:45:53;101219.41;;;3.45;93.70
68988;BME280;56038;46.080;11.116;2024-01-27T23:50:56;101221.00;;;3.38;94.95
68988;BME280;56038;46.080;11.116;2024-01-27T23:55:58;101226.81;;;3.28;95.62
